To NAV CANADA Home Page Login to a new session Search on AWWS site Feedback and Comments Disclaimer Vers la page française équivalente Tips FAQ What's new on the site To the Forecasts and Observations / NOTAM section To "File a Flight Plan" website Publications and other links Update of the User's profile FIC Telephone Numbers My Weather Data Folder Route Weather Data Regional Weather Data Local Weather Data To the Forecasts and Observations / NOTAM section
Request Generated 03/06/2015 at 08:55:30 UTC . Weather information available at that time is displayed.

METAR/TAF

GANDER/GANDER INTL/NL    

METAR CYQX 060800Z 28014G20KT 20SM FEW022 M15/M19 A2972 RMK SC1 VIA
CYYT SLP075=
METAR CYQX 060700Z 26014G24KT 20SM FEW025 FEW250 M14/M19 A2970 RMK
SC1CI1 VIA CYYT SLP069=
METAR CYQX 060600Z 27015G24KT 20SM FEW026 FEW250 M14/M18 A2970 RMK
SC1CI1 VIA CYYT SLP067=

TAF CYQX 060538Z 0606/0706 27012G22KT P6SM FEW025
BECMG 0612/0614 28018G28KT
BECMG 0621/0623 28015KT
RMK NXT FCST BY 061200Z=
Your time UTC time
Weather data provided by Environment Canada and NAV CANADA